createdAt,value
2022-12-15T00:00:23.570Z,65.59
2022-12-15T00:03:10.358Z,66.18
2022-12-15T00:05:57.270Z,65.35
2022-12-15T00:08:43.900Z,64.95
2022-12-15T00:11:30.237Z,65.22
2022-12-15T00:14:16.843Z,65.25
2022-12-15T00:17:03.396Z,65.27
2022-12-15T00:19:50.167Z,65.31
2022-12-15T00:22:36.656Z,64.97
2022-12-15T00:25:23.643Z,66.20
2022-12-15T00:28:10.086Z,66.70
2022-12-15T00:31:02.116Z,64.91
2022-12-15T00:33:49.189Z,66.18
2022-12-15T00:36:35.715Z,65.87
2022-12-15T00:39:04.282Z,66.99
2022-12-15T00:41:32.340Z,66.67
2022-12-15T00:44:00.231Z,66.78
2022-12-15T00:46:46.878Z,67.01
2022-12-15T00:49:33.783Z,66.49
2022-12-15T00:52:20.538Z,66.58
2022-12-15T00:55:07.365Z,66.38
2022-12-15T00:57:53.973Z,65.95
2022-12-15T01:00:41.008Z,65.37
2022-12-15T01:03:31.218Z,65.39
2022-12-15T01:06:18.410Z,66.15
2022-12-15T01:09:04.624Z,64.68
2022-12-15T01:11:51.387Z,66.43
2022-12-15T01:14:38.199Z,64.76
2022-12-15T01:17:24.677Z,66.18
2022-12-15T01:20:11.853Z,65.31
2022-12-15T01:22:40.767Z,66.35
2022-12-15T01:25:10.437Z,66.11
2022-12-15T01:27:38.542Z,65.38
2022-12-15T01:30:08.366Z,66.49
2022-12-15T01:32:39.371Z,66.29
2022-12-15T01:35:10.883Z,64.91
2022-12-15T01:37:39.455Z,64.68
2022-12-15T01:40:30.259Z,63.19
2022-12-15T01:42:58.315Z,61.73
2022-12-15T01:45:29.189Z,62.72
2022-12-15T01:48:03.248Z,62.41
2022-12-15T01:50:37.674Z,62.64
2022-12-15T01:53:06.110Z,62.53
2022-12-15T01:55:34.044Z,62.32
2022-12-15T01:58:06.790Z,61.65
2022-12-15T02:00:35.358Z,60.69
2022-12-15T02:03:06.674Z,60.33
2022-12-15T02:05:35.652Z,60.79
2022-12-15T02:08:05.337Z,61.05
2022-12-15T02:11:14.466Z,61.59
2022-12-15T02:14:06.691Z,62.71
2022-12-15T02:17:29.458Z,60.52
2022-12-15T02:20:28.171Z,62.70
2022-12-15T02:23:14.230Z,62.45
2022-12-15T02:26:03.233Z,60.43
2022-12-15T02:28:55.377Z,61.00
2022-12-15T02:31:49.933Z,61.55
2022-12-15T02:34:18.350Z,60.77
2022-12-15T02:36:59.487Z,58.50
2022-12-15T02:39:27.615Z,59.19
2022-12-15T02:41:55.526Z,58.01
2022-12-15T02:44:35.605Z,57.86
2022-12-15T02:47:06.554Z,59.91
2022-12-15T02:49:49.994Z,59.59
2022-12-15T02:52:26.984Z,56.09
2022-12-15T02:55:05.395Z,55.00
2022-12-15T02:57:44.628Z,54.83
2022-12-15T03:00:15.725Z,54.42
2022-12-15T03:02:51.402Z,55.07
2022-12-15T03:05:22.698Z,54.74
2022-12-15T03:07:54.871Z,53.51
2022-12-15T03:10:25.667Z,52.98
2022-12-15T03:12:54.734Z,54.11
2022-12-15T03:15:22.633Z,53.12
2022-12-15T03:17:50.517Z,52.50
2022-12-15T03:20:18.385Z,51.51
2022-12-15T03:22:46.287Z,51.66
2022-12-15T03:25:14.443Z,51.26
2022-12-15T03:27:42.409Z,49.93
2022-12-15T03:30:10.839Z,51.32
2022-12-15T03:32:38.746Z,51.68
2022-12-15T03:35:07.477Z,50.82
2022-12-15T03:37:35.568Z,51.98
2022-12-15T03:40:03.765Z,55.99
2022-12-15T03:42:49.899Z,57.83
2022-12-15T03:45:23.332Z,59.29
2022-12-15T03:47:51.919Z,59.28
2022-12-15T03:50:22.466Z,60.58
2022-12-15T03:53:03.490Z,59.36
2022-12-15T03:55:31.442Z,60.23
2022-12-15T03:57:59.426Z,60.86
2022-12-15T04:00:27.521Z,59.61
2022-12-15T04:02:55.815Z,60.32
2022-12-15T04:05:29.549Z,60.88
2022-12-15T04:07:59.419Z,60.58
2022-12-15T04:10:33.998Z,59.32
2022-12-15T04:13:08.034Z,60.26
2022-12-15T04:15:37.786Z,59.16
2022-12-15T04:18:07.484Z,60.18
2022-12-15T04:20:35.825Z,59.36
2022-12-15T04:23:03.722Z,58.98
2022-12-15T04:25:50.298Z,64.39
2022-12-15T04:28:36.928Z,59.93
2022-12-15T04:31:29.761Z,59.06
2022-12-15T04:34:20.965Z,59.94
2022-12-15T04:37:10.651Z,58.76
2022-12-15T04:40:01.646Z,58.32
2022-12-15T04:42:51.043Z,58.08
2022-12-15T04:45:40.878Z,59.13
2022-12-15T04:48:28.221Z,56.61
2022-12-15T04:51:14.990Z,57.95
2022-12-15T04:54:04.546Z,57.41
2022-12-15T04:56:51.144Z,55.92
2022-12-15T04:59:38.077Z,57.45
2022-12-15T05:02:24.692Z,57.02
2022-12-15T05:05:12.329Z,57.06
2022-12-15T05:07:59.223Z,58.00
2022-12-15T05:10:45.637Z,58.08
2022-12-15T05:13:32.691Z,56.75
2022-12-15T05:16:19.691Z,55.43
2022-12-15T05:19:06.101Z,57.47
2022-12-15T05:21:52.706Z,56.82
2022-12-15T05:24:39.340Z,56.79
2022-12-15T05:27:26.013Z,56.69
2022-12-15T05:30:12.401Z,56.36
2022-12-15T05:32:40.544Z,57.38
2022-12-15T05:35:08.525Z,57.74
2022-12-15T05:37:36.438Z,56.48
2022-12-15T05:40:05.431Z,56.17
2022-12-15T05:42:34.364Z,56.28
2022-12-15T05:45:02.226Z,55.76
2022-12-15T05:47:31.038Z,55.88
2022-12-15T05:49:58.897Z,55.72
2022-12-15T05:52:27.097Z,56.40
2022-12-15T05:54:55.029Z,56.54
2022-12-15T05:57:22.988Z,56.51
2022-12-15T05:59:50.837Z,54.27
2022-12-15T06:02:18.842Z,55.25
2022-12-15T06:04:46.791Z,54.77
2022-12-15T06:07:14.738Z,54.95
2022-12-15T06:09:42.667Z,55.29
2022-12-15T06:12:10.556Z,54.64
2022-12-15T06:14:38.461Z,55.55
2022-12-15T06:17:06.400Z,55.44
2022-12-15T06:19:34.309Z,54.64
2022-12-15T06:22:02.343Z,55.10
2022-12-15T06:24:30.205Z,56.30
2022-12-15T06:26:58.146Z,53.52
2022-12-15T06:29:26.018Z,55.44
2022-12-15T06:31:53.950Z,56.10
2022-12-15T06:34:21.869Z,56.86
2022-12-15T06:36:50.360Z,55.38
2022-12-15T06:39:18.382Z,54.59
2022-12-15T06:41:46.670Z,56.03
2022-12-15T06:44:16.166Z,56.19
2022-12-15T06:46:45.741Z,56.70
2022-12-15T06:49:14.538Z,55.66
2022-12-15T06:51:44.043Z,56.13
2022-12-15T06:54:12.027Z,56.79
2022-12-15T06:56:39.941Z,57.69
2022-12-15T06:59:08.497Z,57.65
2022-12-15T07:01:36.612Z,57.55
2022-12-15T07:04:05.794Z,56.91
2022-12-15T07:06:38.656Z,58.62
2022-12-15T07:09:10.738Z,58.12
2022-12-15T07:11:38.859Z,58.47
2022-12-15T07:14:06.841Z,60.42
2022-12-15T07:16:34.901Z,59.90
2022-12-15T07:19:02.887Z,60.08
2022-12-15T07:21:30.967Z,60.91
2022-12-15T07:23:59.733Z,62.34
2022-12-15T07:26:28.571Z,61.41
2022-12-15T07:28:56.680Z,60.86
2022-12-15T07:31:24.860Z,61.05
2022-12-15T07:33:54.541Z,62.82
2022-12-15T07:36:22.727Z,61.91
2022-12-15T07:38:51.609Z,60.57
2022-12-15T07:41:20.638Z,61.99
2022-12-15T07:43:49.411Z,60.77
2022-12-15T07:46:18.237Z,60.61
2022-12-15T07:48:50.237Z,61.02
2022-12-15T07:51:20.620Z,61.58
2022-12-15T07:53:51.277Z,62.18
2022-12-15T07:56:20.318Z,61.02
2022-12-15T07:58:48.301Z,59.27
2022-12-15T08:01:17.004Z,57.73
2022-12-15T08:03:45.440Z,61.31
2022-12-15T08:06:14.762Z,62.98
2022-12-15T08:08:44.752Z,60.55
2022-12-15T08:11:19.592Z,62.97
2022-12-15T08:14:05.632Z,61.51
2022-12-15T08:16:36.733Z,63.54
2022-12-15T08:19:05.565Z,63.01
2022-12-15T08:21:34.044Z,62.32
2022-12-15T08:24:02.315Z,62.76
2022-12-15T08:26:31.799Z,61.08
2022-12-15T08:29:40.398Z,61.99
2022-12-15T08:31:53.039Z,60.39
2022-12-15T08:34:21.564Z,60.11
2022-12-15T08:36:49.495Z,60.72
2022-12-15T08:39:17.622Z,60.94
2022-12-15T08:41:45.533Z,62.13
2022-12-15T08:44:13.896Z,61.67
2022-12-15T08:46:42.354Z,61.14
2022-12-15T08:49:10.580Z,61.13
2022-12-15T08:51:38.466Z,61.16
2022-12-15T08:54:08.098Z,61.87
2022-12-15T08:56:36.084Z,62.43
2022-12-15T08:59:04.049Z,59.90
2022-12-15T09:01:33.079Z,60.24
2022-12-15T09:04:04.114Z,60.03
2022-12-15T09:06:34.827Z,60.42
2022-12-15T09:09:07.294Z,60.17
2022-12-15T09:11:35.485Z,60.58
2022-12-15T09:14:04.105Z,61.06
2022-12-15T09:16:32.193Z,61.58
2022-12-15T09:19:00.394Z,62.25
2022-12-15T09:21:30.271Z,62.07
2022-12-15T09:24:01.834Z,64.32
2022-12-15T09:26:33.583Z,64.05
2022-12-15T09:29:02.461Z,64.40
2022-12-15T09:31:34.055Z,64.27
2022-12-15T09:34:02.403Z,63.39
2022-12-15T09:36:32.840Z,63.73
2022-12-15T09:39:02.884Z,63.66
2022-12-15T09:41:33.668Z,63.52
2022-12-15T09:44:15.116Z,63.35
2022-12-15T09:47:23.114Z,63.45
2022-12-15T09:49:57.991Z,60.99
2022-12-15T09:52:29.517Z,61.89
2022-12-15T09:54:58.162Z,62.20
2022-12-15T09:58:23.178Z,62.21
2022-12-15T10:01:01.191Z,60.57
2022-12-15T10:03:55.134Z,62.35
2022-12-15T10:06:33.936Z,62.78
2022-12-15T10:09:22.887Z,62.16
2022-12-15T10:11:57.653Z,61.93
2022-12-15T10:14:37.705Z,61.05
2022-12-15T10:17:21.450Z,61.69
2022-12-15T10:19:56.359Z,61.28
2022-12-15T10:22:26.557Z,61.63
2022-12-15T10:25:11.152Z,60.99
2022-12-15T10:27:49.309Z,63.10
2022-12-15T10:30:17.602Z,62.08
2022-12-15T10:32:57.573Z,63.30
2022-12-15T10:35:30.264Z,63.12
2022-12-15T10:38:00.231Z,63.33
2022-12-15T10:40:51.996Z,62.47
2022-12-15T10:43:35.534Z,63.09
2022-12-15T10:46:07.452Z,61.68
2022-12-15T10:48:36.616Z,63.43
2022-12-15T10:51:21.511Z,62.70
2022-12-15T10:54:06.678Z,63.79
2022-12-15T10:56:35.027Z,64.51
2022-12-15T10:59:23.028Z,64.34
2022-12-15T11:01:52.100Z,64.35
2022-12-15T11:04:26.198Z,62.99
2022-12-15T11:07:02.698Z,65.38
2022-12-15T11:09:37.121Z,63.60
2022-12-15T11:12:38.873Z,64.46
2022-12-15T11:15:21.763Z,64.47
2022-12-15T11:18:01.775Z,64.65
2022-12-15T11:20:40.548Z,67.79
2022-12-15T11:23:34.506Z,69.92
2022-12-15T11:26:22.874Z,70.36
2022-12-15T11:28:58.226Z,69.21
2022-12-15T11:31:37.914Z,69.82
2022-12-15T11:34:14.821Z,69.87
2022-12-15T11:36:55.171Z,71.79
2022-12-15T11:39:29.114Z,71.00
2022-12-15T11:42:10.912Z,71.49
2022-12-15T11:44:53.007Z,71.03
2022-12-15T11:47:40.717Z,66.92
2022-12-15T11:50:31.327Z,61.13
2022-12-15T11:53:19.693Z,60.88
2022-12-15T11:56:07.093Z,60.87
2022-12-15T11:58:59.730Z,59.07
2022-12-15T12:04:39.996Z,58.48
2022-12-15T12:07:22.498Z,57.09
2022-12-15T12:10:03.657Z,57.29
2022-12-15T12:12:45.679Z,56.68
2022-12-15T12:15:37.596Z,57.41
2022-12-15T12:18:33.723Z,56.61
2022-12-15T12:21:07.933Z,56.77
2022-12-15T12:23:46.945Z,56.85
2022-12-15T12:26:25.025Z,58.65
2022-12-15T12:29:00.698Z,58.54
2022-12-15T12:32:04.054Z,58.93
2022-12-15T12:34:51.090Z,58.91
2022-12-15T12:37:40.578Z,59.75
2022-12-15T12:40:21.558Z,58.65
2022-12-15T12:42:59.039Z,57.90
2022-12-15T12:45:52.293Z,55.87
2022-12-15T12:48:35.409Z,54.91
2022-12-15T12:51:13.770Z,54.17
2022-12-15T12:53:41.991Z,55.19
2022-12-15T12:56:40.726Z,54.53
2022-12-15T12:59:30.379Z,57.03
2022-12-15T13:02:14.457Z,57.21
2022-12-15T13:04:44.419Z,57.44
2022-12-15T13:07:29.337Z,58.46
2022-12-15T13:10:09.189Z,59.97
2022-12-15T13:12:54.524Z,62.19
2022-12-15T13:15:39.300Z,61.73
2022-12-15T13:18:19.690Z,62.36
2022-12-15T13:20:50.725Z,63.90
2022-12-15T13:23:21.904Z,62.36
2022-12-15T13:25:55.987Z,62.21
2022-12-15T13:28:49.154Z,62.33
2022-12-15T13:31:21.750Z,62.14
2022-12-15T13:33:50.114Z,61.87
2022-12-15T13:36:37.116Z,60.92
2022-12-15T13:39:11.187Z,60.25
2022-12-15T13:42:31.737Z,59.86
2022-12-15T13:44:53.342Z,59.84
2022-12-15T13:47:31.273Z,63.15
2022-12-15T13:50:12.829Z,64.20
2022-12-15T13:53:18.006Z,64.41
2022-12-15T13:55:52.477Z,66.38
2022-12-15T13:58:22.045Z,65.45
2022-12-15T14:00:56.233Z,63.74
2022-12-15T14:03:24.900Z,62.26
2022-12-15T14:05:55.875Z,64.90
2022-12-15T14:08:27.112Z,99.43
2022-12-15T14:10:57.807Z,102.72
2022-12-15T14:13:30.174Z,95.35
2022-12-15T14:16:19.093Z,90.73
2022-12-15T14:19:03.899Z,91.34
2022-12-15T14:21:31.820Z,104.92
2022-12-15T14:24:36.922Z,119.02
2022-12-15T14:26:48.970Z,119.62
2022-12-15T14:29:19.324Z,105.58
2022-12-15T14:31:51.203Z,101.35
2022-12-15T14:34:23.988Z,88.84
2022-12-15T14:36:55.862Z,78.88
2022-12-15T14:39:34.608Z,76.48
2022-12-15T14:42:03.474Z,72.85
2022-12-15T14:47:30.897Z,67.49
2022-12-15T14:50:01.737Z,66.48
2022-12-15T14:52:37.307Z,63.42
2022-12-15T14:55:20.845Z,64.63
2022-12-15T14:57:53.474Z,62.83
2022-12-15T15:00:32.627Z,63.07
2022-12-15T15:03:04.869Z,57.90
2022-12-15T15:03:27.545Z,61.68
2022-12-15T15:05:59.486Z,59.62
2022-12-15T15:08:37.318Z,59.30
2022-12-15T15:11:23.172Z,59.83
2022-12-15T15:13:59.036Z,61.56
2022-12-15T15:16:27.754Z,61.91
2022-12-15T15:18:56.517Z,61.21
2022-12-15T15:21:27.610Z,60.92
2022-12-15T15:24:02.591Z,62.68
2022-12-15T15:26:31.475Z,62.01
2022-12-15T15:28:59.524Z,60.39
2022-12-15T15:31:41.409Z,60.85
2022-12-15T15:34:09.906Z,60.58
2022-12-15T15:36:39.018Z,61.45
2022-12-15T15:39:15.072Z,61.87
2022-12-15T15:41:43.048Z,61.70
2022-12-15T15:44:14.752Z,62.34
2022-12-15T15:46:51.671Z,62.46
2022-12-15T15:49:21.879Z,60.81
2022-12-15T15:51:49.759Z,61.47
2022-12-15T15:54:23.205Z,60.67
2022-12-15T15:56:51.665Z,58.99
2022-12-15T15:59:21.181Z,61.05
2022-12-15T16:01:57.705Z,65.95
2022-12-15T16:04:26.354Z,65.23
2022-12-15T16:06:54.597Z,64.66
2022-12-15T16:09:24.847Z,62.39
2022-12-15T16:11:54.444Z,63.24
2022-12-15T16:14:22.314Z,62.03
2022-12-15T16:16:50.220Z,60.52
2022-12-15T16:19:18.141Z,60.26
2022-12-15T16:21:50.780Z,58.03
2022-12-15T16:24:19.529Z,70.56
2022-12-15T16:26:50.031Z,81.84
2022-12-15T16:29:20.734Z,97.38
2022-12-15T16:31:48.901Z,98.52
2022-12-15T16:34:19.133Z,99.22
2022-12-15T16:36:48.395Z,98.89
2022-12-15T16:39:28.966Z,99.81
2022-12-15T16:41:57.285Z,85.65
2022-12-15T16:44:27.353Z,79.09
2022-12-15T16:46:55.450Z,74.72
2022-12-15T16:49:23.564Z,71.00
2022-12-15T16:51:53.792Z,60.17
2022-12-15T16:54:27.224Z,55.08
2022-12-15T16:56:57.581Z,54.81
2022-12-15T16:59:35.401Z,52.01
2022-12-15T17:02:27.630Z,52.46
2022-12-15T17:04:55.956Z,52.48
2022-12-15T17:07:27.016Z,51.47
2022-12-15T17:09:55.886Z,50.90
2022-12-15T17:12:23.781Z,50.83
2022-12-15T17:14:51.699Z,51.45
2022-12-15T17:17:20.057Z,51.30
2022-12-15T17:20:27.532Z,50.54
2022-12-15T17:22:38.321Z,49.62
2022-12-15T17:25:13.581Z,49.71
2022-12-15T17:27:41.545Z,49.49
2022-12-15T17:30:14.442Z,51.27
2022-12-15T17:32:44.154Z,49.93
2022-12-15T17:35:12.504Z,49.77
2022-12-15T17:37:41.026Z,48.73
2022-12-15T17:40:23.794Z,49.05
2022-12-15T17:42:51.725Z,48.67
2022-12-15T17:45:24.452Z,49.61
2022-12-15T17:47:52.875Z,50.52
2022-12-15T17:50:20.805Z,51.90
2022-12-15T17:52:48.843Z,51.60
2022-12-15T17:55:27.909Z,53.41
2022-12-15T17:57:59.177Z,51.96
2022-12-15T18:00:29.828Z,51.80
2022-12-15T18:03:00.307Z,50.48
2022-12-15T18:05:30.261Z,51.19
2022-12-15T18:08:01.655Z,51.43
2022-12-15T18:10:38.446Z,51.16
2022-12-15T18:13:30.324Z,52.54
2022-12-15T18:16:04.123Z,53.44
2022-12-15T18:18:32.161Z,52.89
2022-12-15T18:21:03.449Z,53.38
2022-12-15T18:23:32.478Z,53.19
2022-12-15T18:26:03.089Z,50.97
2022-12-15T18:28:34.003Z,50.87
2022-12-15T18:31:21.824Z,51.13
2022-12-15T18:33:50.275Z,50.86
2022-12-15T18:36:20.024Z,50.04
2022-12-15T18:38:48.005Z,50.13
2022-12-15T18:41:18.092Z,48.24
2022-12-15T18:43:46.301Z,49.86
2022-12-15T18:46:20.336Z,50.46
2022-12-15T18:48:48.276Z,50.22
2022-12-15T18:51:21.686Z,49.52
2022-12-15T18:53:49.816Z,49.15
2022-12-15T18:56:21.483Z,50.97
2022-12-15T18:58:49.643Z,49.96
2022-12-15T19:01:17.738Z,51.08
2022-12-15T19:03:45.680Z,51.68
2022-12-15T19:06:23.954Z,51.45
2022-12-15T19:08:53.701Z,53.40
2022-12-15T19:11:31.244Z,52.64
2022-12-15T19:14:00.658Z,49.07
2022-12-15T19:16:52.359Z,48.71
2022-12-15T19:19:38.860Z,50.06
2022-12-15T19:22:30.014Z,49.23
2022-12-15T19:24:59.073Z,49.40
2022-12-15T19:27:27.145Z,47.96
2022-12-15T19:29:55.821Z,48.53
2022-12-15T19:32:24.161Z,48.48
2022-12-15T19:34:53.232Z,48.14
2022-12-15T19:37:27.583Z,48.25
2022-12-15T19:39:58.093Z,47.14
2022-12-15T19:42:31.605Z,46.29
2022-12-15T19:45:01.554Z,46.91
2022-12-15T19:47:29.885Z,46.95
2022-12-15T19:49:57.791Z,46.51
2022-12-15T19:52:26.858Z,46.38
2022-12-15T19:54:54.828Z,46.38
2022-12-15T19:57:22.690Z,46.77
2022-12-15T19:59:51.069Z,46.05
2022-12-15T20:02:21.088Z,46.78
2022-12-15T20:04:49.123Z,46.48
2022-12-15T20:07:33.369Z,45.48
2022-12-15T20:10:03.015Z,46.70
2022-12-15T20:12:31.736Z,46.63
2022-12-15T20:14:59.685Z,46.31
2022-12-15T20:17:28.150Z,47.85
2022-12-15T20:19:55.985Z,47.99
2022-12-15T20:22:24.456Z,46.89
2022-12-15T20:24:52.305Z,47.50
2022-12-15T20:27:20.259Z,47.62
2022-12-15T20:29:48.187Z,45.80
2022-12-15T20:32:19.842Z,46.40
2022-12-15T20:34:48.635Z,45.25
2022-12-15T20:37:19.134Z,43.64
2022-12-15T20:39:49.444Z,44.55
2022-12-15T20:42:22.005Z,43.06
2022-12-15T20:44:50.070Z,42.57
2022-12-15T20:47:23.009Z,42.64
2022-12-15T20:49:52.869Z,42.85
2022-12-15T20:52:23.509Z,41.74
2022-12-15T20:54:53.485Z,41.87
2022-12-15T20:57:21.499Z,43.18
2022-12-15T20:59:49.482Z,43.30
2022-12-15T21:02:21.540Z,45.25
2022-12-15T21:04:50.769Z,43.84
2022-12-15T21:07:18.900Z,42.39
2022-12-15T21:09:46.841Z,44.61
2022-12-15T21:12:27.542Z,45.01
2022-12-15T21:14:55.438Z,44.75
2022-12-15T21:17:25.795Z,44.49
2022-12-15T21:19:54.869Z,44.86
2022-12-15T21:22:26.587Z,44.73
2022-12-15T21:24:57.391Z,44.69
2022-12-15T21:27:25.352Z,43.64
2022-12-15T21:29:53.399Z,42.28
2022-12-15T21:32:21.489Z,41.70
2022-12-15T21:34:50.044Z,42.03
2022-12-15T21:37:27.272Z,40.29
2022-12-15T21:39:56.376Z,39.29
2022-12-15T21:42:24.705Z,39.31
2022-12-15T21:44:53.018Z,39.79
2022-12-15T21:47:20.843Z,39.62
2022-12-15T21:49:48.790Z,39.28
2022-12-15T21:52:17.509Z,39.99
2022-12-15T21:54:45.465Z,39.52
2022-12-15T21:57:13.817Z,38.52
2022-12-15T21:59:42.490Z,38.41
2022-12-15T22:02:26.937Z,37.74
2022-12-15T22:04:55.304Z,38.09
2022-12-15T22:07:23.419Z,38.43
2022-12-15T22:09:51.813Z,36.95
2022-12-15T22:12:21.947Z,37.69
2022-12-15T22:14:49.881Z,36.67
2022-12-15T22:17:21.893Z,36.33
2022-12-15T22:19:49.796Z,37.68
2022-12-15T22:22:36.049Z,36.93
2022-12-15T22:25:04.306Z,36.50
2022-12-15T22:27:33.476Z,37.09
2022-12-15T22:30:01.355Z,36.79
2022-12-15T22:32:30.377Z,36.64
2022-12-15T22:34:58.279Z,36.82
2022-12-15T22:37:26.486Z,38.91
2022-12-15T22:39:54.418Z,41.79
2022-12-15T22:42:22.627Z,42.79
2022-12-15T22:44:51.230Z,42.25
2022-12-15T22:47:19.763Z,41.93
2022-12-15T22:49:47.722Z,40.60
2022-12-15T22:52:18.977Z,40.01
2022-12-15T22:54:47.978Z,39.01
2022-12-15T22:57:22.467Z,40.22
2022-12-15T23:00:00.785Z,42.12
2022-12-15T23:02:33.385Z,42.04
2022-12-15T23:05:02.094Z,40.74
2022-12-15T23:07:30.345Z,40.81
2022-12-15T23:10:17.054Z,40.85
2022-12-15T23:12:44.984Z,39.75
2022-12-15T23:15:31.687Z,39.60
2022-12-15T23:17:59.629Z,39.43
2022-12-15T23:20:27.500Z,39.59
2022-12-15T23:22:55.423Z,40.09
2022-12-15T23:25:23.312Z,40.27
2022-12-15T23:27:51.574Z,40.37
2022-12-15T23:30:20.054Z,40.90
2022-12-15T23:32:48.177Z,40.55
2022-12-15T23:35:16.370Z,42.44
2022-12-15T23:37:44.460Z,41.78
2022-12-15T23:40:13.357Z,41.09
2022-12-15T23:42:41.292Z,42.13
2022-12-15T23:45:09.603Z,41.41
2022-12-15T23:47:37.570Z,43.02
2022-12-15T23:50:05.951Z,42.17
2022-12-15T23:52:34.216Z,42.07
2022-12-15T23:55:02.421Z,42.79
2022-12-15T23:57:30.449Z,42.43
2022-12-15T23:59:58.382Z,41.49
